sensor_id;sensor_type;location;lat;lon;timestamp;pressure;altitude;pressure_sealevel;temperature;humidity
41234;BME280;26968;42.686;23.352;2022-10-23T00:00:33;95677.00;;;11.11;69.35
41234;BME280;26968;42.686;23.352;2022-10-23T00:02:59;95728.00;;;11.49;69.21
41234;BME280;26968;42.686;23.352;2022-10-23T00:05:25;95693.97;;;11.26;69.28
41234;BME280;26968;42.686;23.352;2022-10-23T00:07:52;95757.75;;;11.56;69.49
41234;BME280;26968;42.686;23.352;2022-10-23T00:10:19;95755.34;;;11.59;69.89
41234;BME280;26968;42.686;23.352;2022-10-23T00:12:46;95679.13;;;11.19;69.74
41234;BME280;26968;42.686;23.352;2022-10-23T00:15:13;95740.47;;;11.64;69.73
41234;BME280;26968;42.686;23.352;2022-10-23T00:17:38;95665.56;;;11.11;69.60
41234;BME280;26968;42.686;23.352;2022-10-23T00:20:05;95751.88;;;11.69;69.50
41234;BME280;26968;42.686;23.352;2022-10-23T00:22:31;95740.75;;;11.72;69.65
41234;BME280;26968;42.686;23.352;2022-10-23T00:24:56;95721.06;;;11.63;69.68
41234;BME280;26968;42.686;23.352;2022-10-23T00:27:22;95668.75;;;11.23;70.19
41234;BME280;26968;42.686;23.352;2022-10-23T00:29:47;95729.06;;;11.43;70.12
41234;BME280;26968;42.686;23.352;2022-10-23T00:32:12;95695.31;;;11.23;69.63
41234;BME280;26968;42.686;23.352;2022-10-23T00:34:38;95707.28;;;11.36;69.99
41234;BME280;26968;42.686;23.352;2022-10-23T00:37:03;95699.56;;;11.29;70.00
41234;BME280;26968;42.686;23.352;2022-10-23T00:39:29;95745.00;;;11.63;69.52
41234;BME280;26968;42.686;23.352;2022-10-23T00:41:54;95663.69;;;11.21;69.46
41234;BME280;26968;42.686;23.352;2022-10-23T00:46:45;95625.19;;;10.83;69.78
41234;BME280;26968;42.686;23.352;2022-10-23T00:49:11;95633.44;;;10.97;69.55
41234;BME280;26968;42.686;23.352;2022-10-23T00:51:40;95732.50;;;11.69;69.76
41234;BME280;26968;42.686;23.352;2022-10-23T00:54:08;95642.22;;;10.98;69.66
41234;BME280;26968;42.686;23.352;2022-10-23T00:56:36;95717.88;;;11.46;70.05
41234;BME280;26968;42.686;23.352;2022-10-23T00:59:02;95716.03;;;11.41;69.44
41234;BME280;26968;42.686;23.352;2022-10-23T01:01:27;95716.81;;;11.11;68.88
41234;BME280;26968;42.686;23.352;2022-10-23T01:03:53;95768.84;;;11.17;70.11
41234;BME280;26968;42.686;23.352;2022-10-23T01:06:33;95684.34;;;10.74;70.41
41234;BME280;26968;42.686;23.352;2022-10-23T01:11:41;95755.88;;;11.41;69.62
41234;BME280;26968;42.686;23.352;2022-10-23T01:17:05;95784.03;;;11.57;68.42
41234;BME280;26968;42.686;23.352;2022-10-23T01:27:41;95737.81;;;11.33;67.69
41234;BME280;26968;42.686;23.352;2022-10-23T01:30:14;95791.47;;;11.55;67.52
41234;BME280;26968;42.686;23.352;2022-10-23T01:32:54;95796.53;;;11.62;66.93
41234;BME280;26968;42.686;23.352;2022-10-23T01:35:28;95784.72;;;11.07;67.68
41234;BME280;26968;42.686;23.352;2022-10-23T01:38:18;95768.81;;;10.97;67.77
41234;BME280;26968;42.686;23.352;2022-10-23T01:41:16;95819.31;;;11.33;67.96
41234;BME280;26968;42.686;23.352;2022-10-23T01:44:00;95777.81;;;11.06;67.79
41234;BME280;26968;42.686;23.352;2022-10-23T01:46:30;95812.94;;;11.29;67.26
41234;BME280;26968;42.686;23.352;2022-10-23T01:48:58;95719.59;;;10.59;67.88
41234;BME280;26968;42.686;23.352;2022-10-23T01:51:26;95822.22;;;11.26;67.66
41234;BME280;26968;42.686;23.352;2022-10-23T01:53:56;95793.03;;;11.26;68.03
41234;BME280;26968;42.686;23.352;2022-10-23T01:56:26;95789.84;;;11.34;67.56
41234;BME280;26968;42.686;23.352;2022-10-23T01:58:54;95706.34;;;10.69;67.70
41234;BME280;26968;42.686;23.352;2022-10-23T02:01:22;95723.34;;;10.83;67.92
41234;BME280;26968;42.686;23.352;2022-10-23T02:03:50;95818.00;;;11.35;67.44
41234;BME280;26968;42.686;23.352;2022-10-23T02:06:17;95754.22;;;11.10;66.98
41234;BME280;26968;42.686;23.352;2022-10-23T02:08:42;95801.53;;;11.38;67.17
41234;BME280;26968;42.686;23.352;2022-10-23T02:11:17;95805.53;;;11.46;66.65
41234;BME280;26968;42.686;23.352;2022-10-23T02:13:50;95813.53;;;11.51;66.79
41234;BME280;26968;42.686;23.352;2022-10-23T02:16:51;95817.25;;;11.50;67.22
41234;BME280;26968;42.686;23.352;2022-10-23T02:19:25;95815.91;;;11.52;67.33
41234;BME280;26968;42.686;23.352;2022-10-23T02:22:06;95812.69;;;11.45;67.33
41234;BME280;26968;42.686;23.352;2022-10-23T02:24:48;95794.09;;;11.40;67.23
41234;BME280;26968;42.686;23.352;2022-10-23T02:27:19;95771.78;;;11.26;67.28
41234;BME280;26968;42.686;23.352;2022-10-23T02:29:52;95752.13;;;11.22;66.87
41234;BME280;26968;42.686;23.352;2022-10-23T02:32:21;95812.22;;;11.64;66.76
41234;BME280;26968;42.686;23.352;2022-10-23T02:34:48;95797.06;;;11.44;67.14
41234;BME280;26968;42.686;23.352;2022-10-23T02:37:14;95821.72;;;11.39;67.44
41234;BME280;26968;42.686;23.352;2022-10-23T02:39:40;95775.16;;;11.01;67.70
41234;BME280;26968;42.686;23.352;2022-10-23T02:42:10;95835.50;;;11.31;67.71
41234;BME280;26968;42.686;23.352;2022-10-23T02:53:02;95792.53;;;11.49;66.38
41234;BME280;26968;42.686;23.352;2022-10-23T02:58:25;95817.56;;;11.84;66.17
41234;BME280;26968;42.686;23.352;2022-10-23T03:00:57;95810.91;;;11.76;65.57
41234;BME280;26968;42.686;23.352;2022-10-23T03:03:30;95817.84;;;11.82;65.72
41234;BME280;26968;42.686;23.352;2022-10-23T03:05:58;95834.84;;;11.96;65.55
41234;BME280;26968;42.686;23.352;2022-10-23T03:08:23;95809.06;;;11.87;65.34
41234;BME280;26968;42.686;23.352;2022-10-23T03:10:49;95796.00;;;11.70;65.59
41234;BME280;26968;42.686;23.352;2022-10-23T03:13:15;95822.59;;;11.75;65.97
41234;BME280;26968;42.686;23.352;2022-10-23T03:15:41;95842.56;;;11.93;65.66
41234;BME280;26968;42.686;23.352;2022-10-23T03:18:07;95818.84;;;11.66;66.22
41234;BME280;26968;42.686;23.352;2022-10-23T03:20:33;95806.34;;;11.56;66.19
41234;BME280;26968;42.686;23.352;2022-10-23T03:22:58;95766.50;;;11.36;66.03
41234;BME280;26968;42.686;23.352;2022-10-23T03:25:24;95807.69;;;11.64;66.34
41234;BME280;26968;42.686;23.352;2022-10-23T03:27:49;95815.94;;;11.57;66.29
41234;BME280;26968;42.686;23.352;2022-10-23T03:30:14;95794.66;;;11.47;66.17
41234;BME280;26968;42.686;23.352;2022-10-23T03:32:40;95861.63;;;11.70;67.02
41234;BME280;26968;42.686;23.352;2022-10-23T03:35:06;95860.31;;;11.67;67.54
41234;BME280;26968;42.686;23.352;2022-10-23T03:37:31;95860.06;;;11.74;67.26
41234;BME280;26968;42.686;23.352;2022-10-23T03:39:57;95857.16;;;11.80;67.07
41234;BME280;26968;42.686;23.352;2022-10-23T03:42:22;95851.31;;;11.78;66.79
41234;BME280;26968;42.686;23.352;2022-10-23T03:44:47;95853.97;;;11.83;66.93
41234;BME280;26968;42.686;23.352;2022-10-23T03:47:13;95796.25;;;11.48;66.74
41234;BME280;26968;42.686;23.352;2022-10-23T03:49:39;95802.63;;;11.47;67.31
41234;BME280;26968;42.686;23.352;2022-10-23T03:52:05;95855.28;;;11.91;67.15
41234;BME280;26968;42.686;23.352;2022-10-23T03:54:30;95832.16;;;11.76;66.66
41234;BME280;26968;42.686;23.352;2022-10-23T03:56:56;95798.91;;;11.48;66.80
41234;BME280;26968;42.686;23.352;2022-10-23T03:59:22;95863.81;;;11.88;67.06
41234;BME280;26968;42.686;23.352;2022-10-23T04:01:47;95800.75;;;11.48;66.68
41234;BME280;26968;42.686;23.352;2022-10-23T04:04:13;95873.34;;;11.74;66.19
41234;BME280;26968;42.686;23.352;2022-10-23T04:06:39;95823.88;;;11.47;65.24
41234;BME280;26968;42.686;23.352;2022-10-23T04:09:05;95863.78;;;11.78;63.83
41234;BME280;26968;42.686;23.352;2022-10-23T04:11:31;95803.94;;;11.40;63.69
41234;BME280;26968;42.686;23.352;2022-10-23T04:13:57;95814.31;;;11.46;63.09
41234;BME280;26968;42.686;23.352;2022-10-23T04:16:23;95821.25;;;11.57;62.68
41234;BME280;26968;42.686;23.352;2022-10-23T04:18:49;95873.94;;;11.96;62.56
41234;BME280;26968;42.686;23.352;2022-10-23T04:21:14;95866.22;;;11.94;62.25
41234;BME280;26968;42.686;23.352;2022-10-23T04:23:40;95803.44;;;11.63;62.03
41234;BME280;26968;42.686;23.352;2022-10-23T04:26:05;95871.78;;;12.13;62.33
41234;BME280;26968;42.686;23.352;2022-10-23T04:28:31;95884.31;;;12.18;62.37
41234;BME280;26968;42.686;23.352;2022-10-23T04:30:56;95811.41;;;11.68;62.01
41234;BME280;26968;42.686;23.352;2022-10-23T04:33:23;95837.25;;;11.88;60.80
41234;BME280;26968;42.686;23.352;2022-10-23T04:35:48;95852.41;;;12.03;59.86
41234;BME280;26968;42.686;23.352;2022-10-23T04:38:14;95872.06;;;12.22;60.37
41234;BME280;26968;42.686;23.352;2022-10-23T04:40:39;95893.34;;;12.42;60.60
41234;BME280;26968;42.686;23.352;2022-10-23T04:43:05;95830.06;;;12.04;60.67
41234;BME280;26968;42.686;23.352;2022-10-23T04:45:30;95826.88;;;12.02;61.69
41234;BME280;26968;42.686;23.352;2022-10-23T04:47:55;95774.19;;;11.48;62.94
41234;BME280;26968;42.686;23.352;2022-10-23T04:50:21;95817.28;;;11.75;62.86
41234;BME280;26968;42.686;23.352;2022-10-23T04:52:47;95824.75;;;11.93;62.45
41234;BME280;26968;42.686;23.352;2022-10-23T04:55:13;95898.38;;;12.38;62.24
41234;BME280;26968;42.686;23.352;2022-10-23T04:57:39;95899.97;;;12.40;62.42
41234;BME280;26968;42.686;23.352;2022-10-23T05:00:06;95898.66;;;12.37;62.52
41234;BME280;26968;42.686;23.352;2022-10-23T05:02:32;95904.25;;;12.35;62.49
41234;BME280;26968;42.686;23.352;2022-10-23T05:04:58;95897.88;;;12.26;63.06
41234;BME280;26968;42.686;23.352;2022-10-23T05:07:23;95856.13;;;11.96;63.19
41234;BME280;26968;42.686;23.352;2022-10-23T05:09:49;95834.78;;;11.71;63.01
41234;BME280;26968;42.686;23.352;2022-10-23T05:12:14;95866.22;;;11.94;63.14
41234;BME280;26968;42.686;23.352;2022-10-23T05:14:40;95899.72;;;12.21;63.52
41234;BME280;26968;42.686;23.352;2022-10-23T05:17:13;95914.91;;;12.20;63.41
41234;BME280;26968;42.686;23.352;2022-10-23T05:19:48;95914.34;;;12.03;64.03
41234;BME280;26968;42.686;23.352;2022-10-23T05:22:15;95858.75;;;11.76;63.88
41234;BME280;26968;42.686;23.352;2022-10-23T05:24:42;95843.53;;;11.51;63.67
41234;BME280;26968;42.686;23.352;2022-10-23T05:27:08;95807.56;;;11.08;64.24
41234;BME280;26968;42.686;23.352;2022-10-23T05:29:33;95915.91;;;11.89;64.11
41234;BME280;26968;42.686;23.352;2022-10-23T05:32:02;95891.38;;;11.61;63.55
41234;BME280;26968;42.686;23.352;2022-10-23T05:34:32;95873.00;;;11.45;63.17
41234;BME280;26968;42.686;23.352;2022-10-23T05:37:00;95900.69;;;11.59;63.64
41234;BME280;26968;42.686;23.352;2022-10-23T05:39:26;95881.53;;;11.57;62.71
41234;BME280;26968;42.686;23.352;2022-10-23T05:41:52;95873.53;;;11.47;63.33
41234;BME280;26968;42.686;23.352;2022-10-23T05:44:19;95940.81;;;11.73;63.66
41234;BME280;26968;42.686;23.352;2022-10-23T05:46:44;95921.69;;;11.71;63.09
41234;BME280;26968;42.686;23.352;2022-10-23T05:49:10;95891.63;;;11.50;62.66
41234;BME280;26968;42.686;23.352;2022-10-23T05:51:37;95914.50;;;11.66;62.14
41234;BME280;26968;42.686;23.352;2022-10-23T05:54:03;95901.47;;;11.65;61.92
41234;BME280;26968;42.686;23.352;2022-10-23T05:56:30;95963.28;;;12.12;63.10
41234;BME280;26968;42.686;23.352;2022-10-23T05:58:56;95935.03;;;11.91;62.79
41234;BME280;26968;42.686;23.352;2022-10-23T06:01:21;95933.72;;;11.98;62.32
41234;BME280;26968;42.686;23.352;2022-10-23T06:03:47;95965.66;;;12.24;61.92
41234;BME280;26968;42.686;23.352;2022-10-23T06:06:12;95928.41;;;11.98;61.96
41234;BME280;26968;42.686;23.352;2022-10-23T06:08:38;95945.19;;;12.24;61.84
41234;BME280;26968;42.686;23.352;2022-10-23T06:11:05;95989.38;;;12.51;61.74
41234;BME280;26968;42.686;23.352;2022-10-23T06:13:31;95986.16;;;12.59;61.56
41234;BME280;26968;42.686;23.352;2022-10-23T06:15:56;95933.50;;;12.20;61.61
41234;BME280;26968;42.686;23.352;2022-10-23T06:18:22;96000.03;;;12.71;61.36
41234;BME280;26968;42.686;23.352;2022-10-23T06:20:47;95997.38;;;12.66;61.09
41234;BME280;26968;42.686;23.352;2022-10-23T06:23:13;95972.06;;;12.68;61.15
41234;BME280;26968;42.686;23.352;2022-10-23T06:25:38;95873.13;;;12.11;60.87
41234;BME280;26968;42.686;23.352;2022-10-23T06:28:04;95980.31;;;12.87;61.46
41234;BME280;26968;42.686;23.352;2022-10-23T06:30:29;95969.94;;;12.81;61.74
41234;BME280;26968;42.686;23.352;2022-10-23T06:32:54;95931.59;;;12.66;62.07
41234;BME280;26968;42.686;23.352;2022-10-23T06:35:20;95984.81;;;13.12;63.63
41234;BME280;26968;42.686;23.352;2022-10-23T06:37:45;95953.41;;;13.04;64.57
41234;BME280;26968;42.686;23.352;2022-10-23T06:40:11;95976.56;;;13.24;64.41
41234;BME280;26968;42.686;23.352;2022-10-23T06:42:36;95996.44;;;13.57;65.39
41234;BME280;26968;42.686;23.352;2022-10-23T06:45:02;95898.53;;;13.08;65.47
41234;BME280;26968;42.686;23.352;2022-10-23T06:47:28;95924.56;;;13.41;65.98
41234;BME280;26968;42.686;23.352;2022-10-23T06:49:53;96002.16;;;13.94;66.05
41234;BME280;26968;42.686;23.352;2022-10-23T06:52:18;96001.03;;;14.00;66.45
41234;BME280;26968;42.686;23.352;2022-10-23T06:54:44;95954.50;;;13.77;66.45
41234;BME280;26968;42.686;23.352;2022-10-23T06:57:09;95971.19;;;13.98;66.30
41234;BME280;26968;42.686;23.352;2022-10-23T06:59:35;95993.50;;;14.17;66.40
41234;BME280;26968;42.686;23.352;2022-10-23T07:02:00;96015.53;;;14.38;66.26
41234;BME280;26968;42.686;23.352;2022-10-23T07:04:25;96006.47;;;14.34;66.50
41234;BME280;26968;42.686;23.352;2022-10-23T07:06:54;96007.38;;;14.58;66.22
41234;BME280;26968;42.686;23.352;2022-10-23T07:09:20;95961.88;;;14.40;65.49
41234;BME280;26968;42.686;23.352;2022-10-23T07:11:46;96015.75;;;14.81;65.12
41234;BME280;26968;42.686;23.352;2022-10-23T07:14:11;95962.38;;;14.47;65.20
41234;BME280;26968;42.686;23.352;2022-10-23T07:16:36;95977.88;;;14.74;64.86
41234;BME280;26968;42.686;23.352;2022-10-23T07:19:02;95995.72;;;14.83;65.11
41234;BME280;26968;42.686;23.352;2022-10-23T07:21:29;95993.16;;;14.68;64.78
41234;BME280;26968;42.686;23.352;2022-10-23T07:23:56;96001.53;;;14.90;64.62
41234;BME280;26968;42.686;23.352;2022-10-23T07:26:23;96001.25;;;14.92;64.84
41234;BME280;26968;42.686;23.352;2022-10-23T07:28:48;96014.00;;;15.00;65.12
41234;BME280;26968;42.686;23.352;2022-10-23T07:31:22;96015.00;;;15.09;64.73
41234;BME280;26968;42.686;23.352;2022-10-23T07:33:48;96009.66;;;15.09;65.35
41234;BME280;26968;42.686;23.352;2022-10-23T07:36:14;95972.47;;;14.84;65.14
41234;BME280;26968;42.686;23.352;2022-10-23T07:38:40;96010.84;;;15.22;64.40
41234;BME280;26968;42.686;23.352;2022-10-23T07:41:06;96011.94;;;15.21;64.13
41234;BME280;26968;42.686;23.352;2022-10-23T07:43:31;96017.22;;;15.26;64.41
41234;BME280;26968;42.686;23.352;2022-10-23T07:45:58;95972.53;;;15.07;63.91
41234;BME280;26968;42.686;23.352;2022-10-23T07:48:23;95998.22;;;15.27;63.00
41234;BME280;26968;42.686;23.352;2022-10-23T07:50:51;95995.47;;;15.37;62.27
41234;BME280;26968;42.686;23.352;2022-10-23T07:53:19;95922.38;;;14.99;61.97
41234;BME280;26968;42.686;23.352;2022-10-23T07:55:54;95974.00;;;15.42;61.25
41234;BME280;26968;42.686;23.352;2022-10-23T07:58:20;95945.13;;;15.44;60.54
41234;BME280;26968;42.686;23.352;2022-10-23T08:00:46;95994.00;;;15.74;60.39
41234;BME280;26968;42.686;23.352;2022-10-23T08:03:17;96042.94;;;15.98;60.19
41234;BME280;26968;42.686;23.352;2022-10-23T08:05:42;95934.34;;;15.55;60.38
41234;BME280;26968;42.686;23.352;2022-10-23T08:08:08;95961.53;;;15.62;60.00
41234;BME280;26968;42.686;23.352;2022-10-23T08:10:33;96008.97;;;16.17;59.94
41234;BME280;26968;42.686;23.352;2022-10-23T08:12:59;95885.75;;;15.48;60.04
41234;BME280;26968;42.686;23.352;2022-10-23T08:15:24;95934.16;;;15.70;60.43
41234;BME280;26968;42.686;23.352;2022-10-23T08:17:50;96015.34;;;16.21;60.57
41234;BME280;26968;42.686;23.352;2022-10-23T08:20:15;95951.00;;;15.70;60.45
41234;BME280;26968;42.686;23.352;2022-10-23T08:22:41;95993.97;;;15.98;60.48
41234;BME280;26968;42.686;23.352;2022-10-23T08:25:07;96008.91;;;16.23;60.56
41234;BME280;26968;42.686;23.352;2022-10-23T08:27:32;95999.16;;;16.32;60.00
41234;BME280;26968;42.686;23.352;2022-10-23T08:29:58;95980.75;;;16.25;60.40
41234;BME280;26968;42.686;23.352;2022-10-23T08:32:23;95974.75;;;16.33;60.20
41234;BME280;26968;42.686;23.352;2022-10-23T08:34:48;95981.13;;;16.18;60.01
41234;BME280;26968;42.686;23.352;2022-10-23T08:37:14;96028.28;;;16.52;60.21
41234;BME280;26968;42.686;23.352;2022-10-23T08:39:39;95995.97;;;16.30;60.62
41234;BME280;26968;42.686;23.352;2022-10-23T08:42:05;95976.06;;;16.17;60.47
41234;BME280;26968;42.686;23.352;2022-10-23T08:44:51;96003.63;;;16.36;60.39
41234;BME280;26968;42.686;23.352;2022-10-23T08:47:25;95988.94;;;16.34;60.21
41234;BME280;26968;42.686;23.352;2022-10-23T08:50:00;95965.41;;;16.12;60.21
41234;BME280;26968;42.686;23.352;2022-10-23T08:52:49;96021.56;;;16.54;59.98
41234;BME280;26968;42.686;23.352;2022-10-23T08:55:29;95996.59;;;16.40;60.23
41234;BME280;26968;42.686;23.352;2022-10-23T08:58:06;96021.50;;;16.59;60.08
41234;BME280;26968;42.686;23.352;2022-10-23T09:00:32;95944.69;;;16.23;59.62
41234;BME280;26968;42.686;23.352;2022-10-23T09:03:01;95999.84;;;16.56;60.31
41234;BME280;26968;42.686;23.352;2022-10-23T09:11:55;95978.94;;;16.58;60.21
41234;BME280;26968;42.686;23.352;2022-10-23T09:19:29;95976.66;;;16.70;59.50
41234;BME280;26968;42.686;23.352;2022-10-23T09:21:56;96009.66;;;16.98;58.71
41234;BME280;26968;42.686;23.352;2022-10-23T09:24:25;95946.69;;;16.68;58.44
41234;BME280;26968;42.686;23.352;2022-10-23T09:26:52;96009.09;;;17.01;57.82
41234;BME280;26968;42.686;23.352;2022-10-23T09:29:25;96037.81;;;17.14;58.01
41234;BME280;26968;42.686;23.352;2022-10-23T09:31:54;95983.66;;;16.98;57.25
41234;BME280;26968;42.686;23.352;2022-10-23T09:34:21;95972.06;;;17.03;57.56
41234;BME280;26968;42.686;23.352;2022-10-23T09:37:02;95960.63;;;16.97;57.52
41234;BME280;26968;42.686;23.352;2022-10-23T09:39:32;95988.50;;;17.29;57.10
41234;BME280;26968;42.686;23.352;2022-10-23T09:41:59;95984.22;;;17.28;57.24
41234;BME280;26968;42.686;23.352;2022-10-23T09:44:32;95958.59;;;17.35;55.48
41234;BME280;26968;42.686;23.352;2022-10-23T09:49:33;95994.69;;;17.70;54.04
41234;BME280;26968;42.686;23.352;2022-10-23T09:52:22;95957.47;;;18.19;52.18
41234;BME280;26968;42.686;23.352;2022-10-23T09:54:53;95999.66;;;19.21;50.27
41234;BME280;26968;42.686;23.352;2022-10-23T09:57:33;95985.56;;;19.86;48.33
41234;BME280;26968;42.686;23.352;2022-10-23T10:00:17;95964.91;;;20.47;46.71
41234;BME280;26968;42.686;23.352;2022-10-23T10:02:54;95975.31;;;21.26;45.05
41234;BME280;26968;42.686;23.352;2022-10-23T10:05:21;95977.69;;;21.74;43.71
41234;BME280;26968;42.686;23.352;2022-10-23T10:10:42;95990.19;;;21.78;41.98
41234;BME280;26968;42.686;23.352;2022-10-23T10:15:49;95990.72;;;22.10;41.22
41234;BME280;26968;42.686;23.352;2022-10-23T10:20:56;95957.44;;;22.39;39.94
41234;BME280;26968;42.686;23.352;2022-10-23T10:23:36;95975.34;;;21.93;39.55
41234;BME280;26968;42.686;23.352;2022-10-23T10:31:38;95956.56;;;21.67;40.20
41234;BME280;26968;42.686;23.352;2022-10-23T10:36:46;95946.72;;;21.71;40.42
41234;BME280;26968;42.686;23.352;2022-10-23T10:42:19;95954.81;;;21.71;40.40
41234;BME280;26968;42.686;23.352;2022-10-23T10:47:40;95933.56;;;21.32;41.69
41234;BME280;26968;42.686;23.352;2022-10-23T10:57:55;95934.84;;;21.34;41.81
41234;BME280;26968;42.686;23.352;2022-10-23T11:00:23;95865.69;;;21.12;41.56
41234;BME280;26968;42.686;23.352;2022-10-23T11:02:57;95898.13;;;20.95;41.31
41234;BME280;26968;42.686;23.352;2022-10-23T11:05:31;95894.31;;;20.96;40.84
41234;BME280;26968;42.686;23.352;2022-10-23T11:08:17;95918.66;;;21.26;41.26
41234;BME280;26968;42.686;23.352;2022-10-23T11:10:51;95897.81;;;20.97;40.49
41234;BME280;26968;42.686;23.352;2022-10-23T11:15:47;95886.66;;;21.07;40.32
41234;BME280;26968;42.686;23.352;2022-10-23T11:18:19;95859.53;;;20.48;41.85
41234;BME280;26968;42.686;23.352;2022-10-23T11:24:07;95926.94;;;21.21;41.08
41234;BME280;26968;42.686;23.352;2022-10-23T11:26:41;95906.16;;;21.12;41.17
41234;BME280;26968;42.686;23.352;2022-10-23T11:32:20;95903.88;;;21.32;40.95
41234;BME280;26968;42.686;23.352;2022-10-23T11:37:58;95875.00;;;21.32;41.08
41234;BME280;26968;42.686;23.352;2022-10-23T11:40:25;95865.47;;;21.35;40.42
41234;BME280;26968;42.686;23.352;2022-10-23T11:42:51;95817.59;;;21.14;40.42
41234;BME280;26968;42.686;23.352;2022-10-23T11:48:17;95857.94;;;21.49;40.30
41234;BME280;26968;42.686;23.352;2022-10-23T11:58:46;95874.09;;;21.58;39.16
41234;BME280;26968;42.686;23.352;2022-10-23T12:03:59;95853.97;;;21.46;38.95
41234;BME280;26968;42.686;23.352;2022-10-23T12:06:37;95798.72;;;21.14;39.12
41234;BME280;26968;42.686;23.352;2022-10-23T12:09:17;95827.00;;;21.46;39.15
41234;BME280;26968;42.686;23.352;2022-10-23T12:11:47;95869.81;;;21.56;39.42
41234;BME280;26968;42.686;23.352;2022-10-23T12:14:27;95857.63;;;21.50;39.96
41234;BME280;26968;42.686;23.352;2022-10-23T12:16:52;95807.16;;;21.13;39.29
41234;BME280;26968;42.686;23.352;2022-10-23T12:19:21;95860.44;;;21.54;39.33
41234;BME280;26968;42.686;23.352;2022-10-23T12:21:50;95826.75;;;21.31;39.06
41234;BME280;26968;42.686;23.352;2022-10-23T12:29:33;95850.44;;;21.25;39.25
41234;BME280;26968;42.686;23.352;2022-10-23T12:40:22;95805.09;;;21.10;38.60
41234;BME280;26968;42.686;23.352;2022-10-23T12:42:55;95798.72;;;21.14;38.78
41234;BME280;26968;42.686;23.352;2022-10-23T12:45:23;95831.41;;;21.22;38.89
41234;BME280;26968;42.686;23.352;2022-10-23T12:47:51;95837.06;;;21.29;38.68
41234;BME280;26968;42.686;23.352;2022-10-23T12:50:22;95829.06;;;21.11;38.86
41234;BME280;26968;42.686;23.352;2022-10-23T12:52:54;95851.50;;;21.33;38.92
41234;BME280;26968;42.686;23.352;2022-10-23T12:55:23;95850.16;;;21.09;39.02
41234;BME280;26968;42.686;23.352;2022-10-23T12:57:49;95862.66;;;21.23;39.16
41234;BME280;26968;42.686;23.352;2022-10-23T13:00:19;95866.91;;;21.32;38.74
41234;BME280;26968;42.686;23.352;2022-10-23T13:02:45;95866.44;;;21.30;38.67
41234;BME280;26968;42.686;23.352;2022-10-23T13:05:16;95868.22;;;21.26;38.60
41234;BME280;26968;42.686;23.352;2022-10-23T13:07:45;95837.00;;;21.16;38.24
41234;BME280;26968;42.686;23.352;2022-10-23T13:10:14;95787.88;;;20.94;38.44
41234;BME280;26968;42.686;23.352;2022-10-23T13:12:42;95859.59;;;21.33;37.75
41234;BME280;26968;42.686;23.352;2022-10-23T13:15:13;95863.31;;;21.20;38.14
41234;BME280;26968;42.686;23.352;2022-10-23T13:17:45;95858.09;;;21.06;38.29
41234;BME280;26968;42.686;23.352;2022-10-23T13:22:46;95863.25;;;20.90;38.81
41234;BME280;26968;42.686;23.352;2022-10-23T13:25:54;95835.41;;;20.60;39.01
41234;BME280;26968;42.686;23.352;2022-10-23T13:31:30;95782.69;;;20.25;38.79
41234;BME280;26968;42.686;23.352;2022-10-23T13:36:25;95861.09;;;20.66;38.83
41234;BME280;26968;42.686;23.352;2022-10-23T13:41:23;95857.31;;;20.50;39.68
41234;BME280;26968;42.686;23.352;2022-10-23T13:43:48;95863.16;;;20.52;39.89
41234;BME280;26968;42.686;23.352;2022-10-23T13:46:15;95857.50;;;20.36;39.53
41234;BME280;26968;42.686;23.352;2022-10-23T13:48:41;95849.72;;;20.09;39.50
41234;BME280;26968;42.686;23.352;2022-10-23T13:51:15;95790.50;;;19.75;39.82
41234;BME280;26968;42.686;23.352;2022-10-23T13:53:43;95827.22;;;19.96;39.84
41234;BME280;26968;42.686;23.352;2022-10-23T13:56:13;95776.72;;;19.59;39.83
41234;BME280;26968;42.686;23.352;2022-10-23T13:58:39;95866.81;;;20.04;39.41
41234;BME280;26968;42.686;23.352;2022-10-23T14:01:05;95867.13;;;19.94;40.13
41234;BME280;26968;42.686;23.352;2022-10-23T14:03:31;95804.72;;;19.49;40.33
41234;BME280;26968;42.686;23.352;2022-10-23T14:05:56;95812.81;;;19.58;40.87
41234;BME280;26968;42.686;23.352;2022-10-23T14:08:22;95841.16;;;19.73;40.92
41234;BME280;26968;42.686;23.352;2022-10-23T14:10:47;95837.97;;;19.71;41.04
41234;BME280;26968;42.686;23.352;2022-10-23T14:13:13;95839.06;;;19.70;41.39
41234;BME280;26968;42.686;23.352;2022-10-23T14:15:38;95770.16;;;19.25;41.51
41234;BME280;26968;42.686;23.352;2022-10-23T14:18:04;95831.47;;;19.63;41.72
41234;BME280;26968;42.686;23.352;2022-10-23T14:20:29;95860.94;;;19.85;41.52
41234;BME280;26968;42.686;23.352;2022-10-23T14:22:55;95801.72;;;19.51;41.87
41234;BME280;26968;42.686;23.352;2022-10-23T14:25:21;95858.91;;;19.82;42.09
41234;BME280;26968;42.686;23.352;2022-10-23T14:27:47;95796.44;;;19.46;42.14
41234;BME280;26968;42.686;23.352;2022-10-23T14:30:13;95857.78;;;19.75;42.38
41234;BME280;26968;42.686;23.352;2022-10-23T14:32:38;95858.69;;;19.70;42.66
41234;BME280;26968;42.686;23.352;2022-10-23T14:35:04;95826.22;;;19.49;42.62
41234;BME280;26968;42.686;23.352;2022-10-23T14:37:31;95839.06;;;19.52;43.17
41234;BME280;26968;42.686;23.352;2022-10-23T14:39:58;95851.09;;;19.63;43.26
41234;BME280;26968;42.686;23.352;2022-10-23T14:42:24;95750.78;;;18.89;43.38
41234;BME280;26968;42.686;23.352;2022-10-23T14:44:50;95856.34;;;19.60;43.63
41234;BME280;26968;42.686;23.352;2022-10-23T14:47:17;95849.84;;;19.52;43.88
41234;BME280;26968;42.686;23.352;2022-10-23T14:49:47;95847.38;;;19.34;44.15
41234;BME280;26968;42.686;23.352;2022-10-23T14:52:15;95812.50;;;19.11;44.50
41234;BME280;26968;42.686;23.352;2022-10-23T14:54:41;95835.22;;;19.45;44.24
41234;BME280;26968;42.686;23.352;2022-10-23T14:57:06;95848.47;;;19.33;44.55